sensor_id;sensor_type;location;lat;lon;timestamp;pressure;altitude;pressure_sealevel;temperature;humidity
49216;BME280;45943;53.148;8.204;2023-01-26T00:01:24;102534.09;;;2.50;100.00
49216;BME280;45943;53.148;8.204;2023-01-26T00:03:54;102525.16;;;2.56;100.00
49216;BME280;45943;53.148;8.204;2023-01-26T00:06:21;102523.41;;;2.53;100.00
49216;BME280;45943;53.148;8.204;2023-01-26T00:08:49;102524.13;;;2.62;100.00
49216;BME280;45943;53.148;8.204;2023-01-26T00:11:17;102519.03;;;2.52;100.00
49216;BME280;45943;53.148;8.204;2023-01-26T00:13:45;102514.97;;;2.36;100.00
49216;BME280;45943;53.148;8.204;2023-01-26T00:16:14;102506.09;;;2.36;100.00
49216;BME280;45943;53.148;8.204;2023-01-26T00:18:40;102506.16;;;2.34;100.00
49216;BME280;45943;53.148;8.204;2023-01-26T00:21:08;102504.22;;;2.42;100.00
49216;BME280;45943;53.148;8.204;2023-01-26T00:23:38;102514.75;;;2.45;100.00
49216;BME280;45943;53.148;8.204;2023-01-26T00:26:11;102509.41;;;2.48;100.00
49216;BME280;45943;53.148;8.204;2023-01-26T00:28:39;102500.69;;;2.42;100.00
49216;BME280;45943;53.148;8.204;2023-01-26T00:31:07;102493.56;;;2.45;100.00
49216;BME280;45943;53.148;8.204;2023-01-26T00:33:37;102504.13;;;2.48;100.00
49216;BME280;45943;53.148;8.204;2023-01-26T00:36:03;102495.25;;;2.49;100.00
49216;BME280;45943;53.148;8.204;2023-01-26T00:38:29;102501.16;;;2.62;100.00
49216;BME280;45943;53.148;8.204;2023-01-26T00:40:56;102487.88;;;2.64;100.00
49216;BME280;45943;53.148;8.204;2023-01-26T00:43:22;102489.63;;;2.66;100.00
49216;BME280;45943;53.148;8.204;2023-01-26T00:45:47;102477.41;;;2.59;100.00
49216;BME280;45943;53.148;8.204;2023-01-26T00:48:15;102480.88;;;2.61;100.00
49216;BME280;45943;53.148;8.204;2023-01-26T00:50:41;102486.13;;;2.63;100.00
49216;BME280;45943;53.148;8.204;2023-01-26T00:53:07;102492.38;;;2.60;100.00
49216;BME280;45943;53.148;8.204;2023-01-26T00:55:34;102483.44;;;2.66;100.00
49216;BME280;45943;53.148;8.204;2023-01-26T00:58:01;102482.44;;;2.71;100.00
49216;BME280;45943;53.148;8.204;2023-01-26T01:00:29;102476.94;;;2.80;100.00
49216;BME280;45943;53.148;8.204;2023-01-26T01:02:56;102475.94;;;2.86;100.00
49216;BME280;45943;53.148;8.204;2023-01-26T01:05:23;102476.81;;;2.86;100.00
49216;BME280;45943;53.148;8.204;2023-01-26T01:07:50;102477.75;;;2.82;100.00
49216;BME280;45943;53.148;8.204;2023-01-26T01:10:16;102476.84;;;2.83;100.00
49216;BME280;45943;53.148;8.204;2023-01-26T01:12:42;102473.22;;;2.89;100.00
49216;BME280;45943;53.148;8.204;2023-01-26T01:15:08;102468.44;;;2.65;100.00
49216;BME280;45943;53.148;8.204;2023-01-26T01:17:34;102474.53;;;2.70;100.00
49216;BME280;45943;53.148;8.204;2023-01-26T01:20:02;102477.25;;;2.65;100.00
49216;BME280;45943;53.148;8.204;2023-01-26T01:22:31;102475.59;;;2.61;100.00
49216;BME280;45943;53.148;8.204;2023-01-26T01:25:00;102473.66;;;2.69;100.00
49216;BME280;45943;53.148;8.204;2023-01-26T01:27:27;102477.09;;;2.73;100.00
49216;BME280;45943;53.148;8.204;2023-01-26T01:29:53;102481.53;;;2.72;100.00
49216;BME280;45943;53.148;8.204;2023-01-26T01:32:19;102473.69;;;2.68;100.00
49216;BME280;45943;53.148;8.204;2023-01-26T01:34:46;102472.63;;;2.76;100.00
49216;BME280;45943;53.148;8.204;2023-01-26T01:37:12;102469.06;;;2.77;100.00
49216;BME280;45943;53.148;8.204;2023-01-26T01:39:39;102474.16;;;2.85;100.00
49216;BME280;45943;53.148;8.204;2023-01-26T01:42:05;102482.09;;;2.86;100.00
49216;BME280;45943;53.148;8.204;2023-01-26T01:44:34;102472.25;;;2.92;100.00
49216;BME280;45943;53.148;8.204;2023-01-26T01:47:02;102471.22;;;2.99;100.00
49216;BME280;45943;53.148;8.204;2023-01-26T01:49:33;102469.34;;;3.02;100.00
49216;BME280;45943;53.148;8.204;2023-01-26T01:52:12;102471.19;;;3.00;100.00
49216;BME280;45943;53.148;8.204;2023-01-26T01:54:50;102468.53;;;3.00;100.00
49216;BME280;45943;53.148;8.204;2023-01-26T01:57:20;102466.84;;;2.98;100.00
49216;BME280;45943;53.148;8.204;2023-01-26T02:00:15;102461.56;;;2.96;100.00
49216;BME280;45943;53.148;8.204;2023-01-26T02:02:41;102463.28;;;2.99;100.00
49216;BME280;45943;53.148;8.204;2023-01-26T02:05:31;102460.53;;;3.02;100.00
49216;BME280;45943;53.148;8.204;2023-01-26T02:08:01;102465.72;;;3.08;100.00
49216;BME280;45943;53.148;8.204;2023-01-26T02:10:28;102458.66;;;3.07;100.00
49216;BME280;45943;53.148;8.204;2023-01-26T02:12:55;102463.19;;;3.02;100.00
49216;BME280;45943;53.148;8.204;2023-01-26T02:15:21;102462.16;;;3.09;100.00
49216;BME280;45943;53.148;8.204;2023-01-26T02:17:50;102467.28;;;3.16;100.00
49216;BME280;45943;53.148;8.204;2023-01-26T02:21:19;102460.09;;;3.20;100.00
49216;BME280;45943;53.148;8.204;2023-01-26T02:28:43;102456.66;;;3.16;100.00
49216;BME280;45943;53.148;8.204;2023-01-26T02:31:12;102453.03;;;3.21;100.00
49216;BME280;45943;53.148;8.204;2023-01-26T02:33:40;102453.03;;;3.21;100.00
49216;BME280;45943;53.148;8.204;2023-01-26T02:36:09;102439.84;;;3.17;100.00
49216;BME280;45943;53.148;8.204;2023-01-26T02:38:43;102447.72;;;3.21;100.00
49216;BME280;45943;53.148;8.204;2023-01-26T02:41:16;102449.41;;;3.25;100.00
49216;BME280;45943;53.148;8.204;2023-01-26T02:44:05;102437.84;;;3.27;100.00
49216;BME280;45943;53.148;8.204;2023-01-26T02:46:34;102445.16;;;3.17;100.00
49216;BME280;45943;53.148;8.204;2023-01-26T02:49:06;102438.91;;;3.20;100.00
49216;BME280;45943;53.148;8.204;2023-01-26T02:51:51;102435.50;;;3.15;100.00
49216;BME280;45943;53.148;8.204;2023-01-26T02:54:23;102437.88;;;3.26;100.00
49216;BME280;45943;53.148;8.204;2023-01-26T02:57:08;102441.69;;;3.14;100.00
49216;BME280;45943;53.148;8.204;2023-01-26T02:59:34;102439.91;;;3.14;100.00
49216;BME280;45943;53.148;8.204;2023-01-26T03:02:01;102437.25;;;3.14;100.00
49216;BME280;45943;53.148;8.204;2023-01-26T03:04:27;102431.91;;;3.17;100.00
49216;BME280;45943;53.148;8.204;2023-01-26T03:06:58;102433.56;;;3.22;100.00
49216;BME280;45943;53.148;8.204;2023-01-26T03:09:24;102430.03;;;3.21;100.00
49216;BME280;45943;53.148;8.204;2023-01-26T03:11:52;102429.06;;;3.24;100.00
49216;BME280;45943;53.148;8.204;2023-01-26T03:14:19;102422.00;;;3.24;100.00
49216;BME280;45943;53.148;8.204;2023-01-26T03:16:48;102424.53;;;3.29;100.00
49216;BME280;45943;53.148;8.204;2023-01-26T03:19:15;102426.38;;;3.27;100.00
49216;BME280;45943;53.148;8.204;2023-01-26T03:22:01;102427.56;;;3.13;100.00
49216;BME280;45943;53.148;8.204;2023-01-26T03:24:45;102426.59;;;2.80;100.00
49216;BME280;45943;53.148;8.204;2023-01-26T03:27:32;102420.41;;;2.80;100.00
49216;BME280;45943;53.148;8.204;2023-01-26T03:30:04;102421.16;;;2.85;100.00
49216;BME280;45943;53.148;8.204;2023-01-26T03:32:32;102418.03;;;3.06;100.00
49216;BME280;45943;53.148;8.204;2023-01-26T03:34:59;102421.25;;;3.19;100.00
49216;BME280;45943;53.148;8.204;2023-01-26T03:37:26;102412.34;;;3.22;100.00
49216;BME280;45943;53.148;8.204;2023-01-26T03:39:59;102422.47;;;3.04;100.00
49216;BME280;45943;53.148;8.204;2023-01-26T03:42:43;102424.00;;;3.14;100.00
49216;BME280;45943;53.148;8.204;2023-01-26T03:45:28;102417.72;;;3.19;100.00
49216;BME280;45943;53.148;8.204;2023-01-26T03:48:13;102411.50;;;3.20;100.00
49216;BME280;45943;53.148;8.204;2023-01-26T03:50:57;102410.38;;;3.30;100.00
49216;BME280;45943;53.148;8.204;2023-01-26T03:53:42;102398.75;;;3.35;100.00
49216;BME280;45943;53.148;8.204;2023-01-26T03:56:28;102397.97;;;3.30;100.00
49216;BME280;45943;53.148;8.204;2023-01-26T03:58:58;102403.25;;;3.32;100.00
49216;BME280;45943;53.148;8.204;2023-01-26T04:01:34;102397.78;;;3.38;100.00
49216;BME280;45943;53.148;8.204;2023-01-26T04:04:02;102392.34;;;3.42;100.00
49216;BME280;45943;53.148;8.204;2023-01-26T04:06:47;102392.34;;;3.42;100.00
49216;BME280;45943;53.148;8.204;2023-01-26T04:09:34;102385.25;;;3.43;100.00
49216;BME280;45943;53.148;8.204;2023-01-26T04:12:12;102392.41;;;3.41;100.00
49216;BME280;45943;53.148;8.204;2023-01-26T04:15:20;102387.03;;;3.42;100.00
49216;BME280;45943;53.148;8.204;2023-01-26T04:18:10;102386.84;;;3.50;100.00
49216;BME280;45943;53.148;8.204;2023-01-26T04:21:06;102383.47;;;3.43;100.00
49216;BME280;45943;53.148;8.204;2023-01-26T04:24:16;102381.75;;;3.42;100.00
49216;BME280;45943;53.148;8.204;2023-01-26T04:27:05;102389.94;;;3.35;100.00
49216;BME280;45943;53.148;8.204;2023-01-26T04:29:41;102385.50;;;3.35;100.00
49216;BME280;45943;53.148;8.204;2023-01-26T04:32:17;102375.56;;;3.42;100.00
49216;BME280;45943;53.148;8.204;2023-01-26T04:34:48;102382.66;;;3.41;100.00
49216;BME280;45943;53.148;8.204;2023-01-26T04:37:23;102387.72;;;3.51;100.00
49216;BME280;45943;53.148;8.204;2023-01-26T04:39:57;102376.25;;;3.50;100.00
49216;BME280;45943;53.148;8.204;2023-01-26T04:42:34;102374.50;;;3.49;100.00
49216;BME280;45943;53.148;8.204;2023-01-26T04:45:03;102364.75;;;3.50;100.00
49216;BME280;45943;53.148;8.204;2023-01-26T04:47:37;102374.69;;;3.41;100.00
49216;BME280;45943;53.148;8.204;2023-01-26T04:50:13;102377.41;;;3.40;100.00
49216;BME280;45943;53.148;8.204;2023-01-26T04:52:44;102377.41;;;3.40;100.00
49216;BME280;45943;53.148;8.204;2023-01-26T04:55:13;102372.00;;;3.44;100.00
49216;BME280;45943;53.148;8.204;2023-01-26T04:57:45;102372.00;;;3.44;100.00
49216;BME280;45943;53.148;8.204;2023-01-26T05:00:24;102368.38;;;3.47;100.00
49216;BME280;45943;53.148;8.204;2023-01-26T05:02:58;102368.34;;;3.49;100.00
49216;BME280;45943;53.148;8.204;2023-01-26T05:05:30;102360.47;;;3.44;100.00
49216;BME280;45943;53.148;8.204;2023-01-26T05:08:08;102366.63;;;3.46;100.00
49216;BME280;45943;53.148;8.204;2023-01-26T05:10:40;102358.72;;;3.44;100.00
49216;BME280;45943;53.148;8.204;2023-01-26T05:13:12;102353.31;;;3.48;100.00
49216;BME280;45943;53.148;8.204;2023-01-26T05:15:43;102354.47;;;3.37;100.00
49216;BME280;45943;53.148;8.204;2023-01-26T05:18:14;102355.97;;;3.48;100.00
49216;BME280;45943;53.148;8.204;2023-01-26T05:20:45;102354.16;;;3.50;100.00
49216;BME280;45943;53.148;8.204;2023-01-26T05:23:15;102348.81;;;3.51;100.00
49216;BME280;45943;53.148;8.204;2023-01-26T05:25:46;102353.09;;;3.57;100.00
49216;BME280;45943;53.148;8.204;2023-01-26T05:28:21;102349.66;;;3.52;100.00
49216;BME280;45943;53.148;8.204;2023-01-26T05:30:55;102350.47;;;3.55;100.00
49216;BME280;45943;53.148;8.204;2023-01-26T05:33:24;102346.09;;;3.53;100.00
49216;BME280;45943;53.148;8.204;2023-01-26T05:36:06;102346.97;;;3.53;100.00
49216;BME280;45943;53.148;8.204;2023-01-26T05:38:40;102355.75;;;3.57;100.00
49216;BME280;45943;53.148;8.204;2023-01-26T05:41:06;102353.75;;;3.65;100.00
49216;BME280;45943;53.148;8.204;2023-01-26T05:43:35;102355.34;;;3.70;100.00
49216;BME280;45943;53.148;8.204;2023-01-26T05:46:04;102364.19;;;3.71;100.00
49216;BME280;45943;53.148;8.204;2023-01-26T05:48:30;102361.72;;;3.65;100.00
49216;BME280;45943;53.148;8.204;2023-01-26T05:50:56;102367.59;;;3.76;100.00
49216;BME280;45943;53.148;8.204;2023-01-26T05:53:23;102363.59;;;4.22;100.00
49216;BME280;45943;53.148;8.204;2023-01-26T05:55:49;102358.25;;;4.53;100.00
49216;BME280;45943;53.148;8.204;2023-01-26T05:58:15;102360.00;;;4.80;100.00
49216;BME280;45943;53.148;8.204;2023-01-26T06:00:41;102361.31;;;4.95;100.00
49216;BME280;45943;53.148;8.204;2023-01-26T06:03:07;102366.97;;;5.11;100.00
49216;BME280;45943;53.148;8.204;2023-01-26T06:05:33;102356.69;;;5.27;100.00
49216;BME280;45943;53.148;8.204;2023-01-26T06:07:59;102363.06;;;5.23;100.00
49216;BME280;45943;53.148;8.204;2023-01-26T06:10:25;102360.22;;;5.27;100.00
49216;BME280;45943;53.148;8.204;2023-01-26T06:12:51;102364.16;;;5.42;100.00
49216;BME280;45943;53.148;8.204;2023-01-26T06:15:17;102357.06;;;5.42;100.00
49216;BME280;45943;53.148;8.204;2023-01-26T06:17:43;102357.19;;;5.38;100.00
49216;BME280;45943;53.148;8.204;2023-01-26T06:20:09;102362.56;;;5.36;100.00
49216;BME280;45943;53.148;8.204;2023-01-26T06:22:35;102364.16;;;5.42;100.00
49216;BME280;45943;53.148;8.204;2023-01-26T06:25:01;102367.41;;;5.50;100.00
49216;BME280;45943;53.148;8.204;2023-01-26T06:27:27;102367.16;;;5.58;100.00
49216;BME280;45943;53.148;8.204;2023-01-26T06:29:54;102364.97;;;5.69;100.00
49216;BME280;45943;53.148;8.204;2023-01-26T06:32:20;102373.53;;;6.03;100.00
49216;BME280;45943;53.148;8.204;2023-01-26T06:34:46;102378.31;;;6.17;100.00
49216;BME280;45943;53.148;8.204;2023-01-26T06:37:12;102378.50;;;6.13;100.00
49216;BME280;45943;53.148;8.204;2023-01-26T06:39:38;102376.97;;;6.06;100.00
49216;BME280;45943;53.148;8.204;2023-01-26T06:42:06;102378.38;;;5.92;100.00
49216;BME280;45943;53.148;8.204;2023-01-26T06:44:33;102380.47;;;5.83;100.00
49216;BME280;45943;53.148;8.204;2023-01-26T06:46:58;102384.44;;;5.71;100.00
49216;BME280;45943;53.148;8.204;2023-01-26T06:49:24;102389.09;;;5.64;100.00
49216;BME280;45943;53.148;8.204;2023-01-26T06:52:04;102390.72;;;5.68;100.00
49216;BME280;45943;53.148;8.204;2023-01-26T06:54:47;102393.31;;;5.71;100.00
49216;BME280;45943;53.148;8.204;2023-01-26T06:57:14;102392.47;;;5.69;100.00
49216;BME280;45943;53.148;8.204;2023-01-26T06:59:40;102390.91;;;5.64;100.00
49216;BME280;45943;53.148;8.204;2023-01-26T07:02:09;102395.41;;;5.62;100.00
49216;BME280;45943;53.148;8.204;2023-01-26T07:04:41;102403.53;;;5.57;100.00
49216;BME280;45943;53.148;8.204;2023-01-26T07:07:07;102388.13;;;5.42;100.00
49216;BME280;45943;53.148;8.204;2023-01-26T07:09:33;102392.88;;;5.32;100.00
49216;BME280;45943;53.148;8.204;2023-01-26T07:11:59;102396.09;;;5.42;100.00
49216;BME280;45943;53.148;8.204;2023-01-26T07:14:25;102397.53;;;5.52;100.00
49216;BME280;45943;53.148;8.204;2023-01-26T07:16:51;102388.50;;;5.56;100.00
49216;BME280;45943;53.148;8.204;2023-01-26T07:19:17;102393.69;;;5.59;100.00
49216;BME280;45943;53.148;8.204;2023-01-26T07:21:43;102392.69;;;5.63;100.00
49216;BME280;45943;53.148;8.204;2023-01-26T07:24:09;102391.97;;;5.58;100.00
49216;BME280;45943;53.148;8.204;2023-01-26T07:26:35;102390.28;;;5.56;100.00
49216;BME280;45943;53.148;8.204;2023-01-26T07:29:01;102397.59;;;5.51;100.00
49216;BME280;45943;53.148;8.204;2023-01-26T07:31:27;102405.28;;;5.58;100.00
49216;BME280;45943;53.148;8.204;2023-01-26T07:33:53;102403.97;;;5.70;100.00
49216;BME280;45943;53.148;8.204;2023-01-26T07:36:19;102409.09;;;5.76;100.00
49216;BME280;45943;53.148;8.204;2023-01-26T07:38:45;102410.13;;;5.72;100.00
49216;BME280;45943;53.148;8.204;2023-01-26T07:41:11;102408.34;;;5.72;100.00
49216;BME280;45943;53.148;8.204;2023-01-26T07:43:38;102408.28;;;5.74;100.00
49216;BME280;45943;53.148;8.204;2023-01-26T07:46:05;102406.31;;;5.79;100.00
49216;BME280;45943;53.148;8.204;2023-01-26T07:48:32;102412.41;;;5.83;100.00
49216;BME280;45943;53.148;8.204;2023-01-26T07:50:59;102407.84;;;5.86;100.00
49216;BME280;45943;53.148;8.204;2023-01-26T07:53:26;102411.25;;;5.90;100.00
49216;BME280;45943;53.148;8.204;2023-01-26T07:56:03;102411.25;;;5.91;100.00
49216;BME280;45943;53.148;8.204;2023-01-26T07:58:31;102409.41;;;5.93;100.00
49216;BME280;45943;53.148;8.204;2023-01-26T08:01:04;102407.72;;;5.89;100.00
49216;BME280;45943;53.148;8.204;2023-01-26T08:03:31;102395.56;;;5.82;100.00
49216;BME280;45943;53.148;8.204;2023-01-26T08:05:57;102401.78;;;5.83;100.00
49216;BME280;45943;53.148;8.204;2023-01-26T08:08:23;102404.19;;;5.89;100.00
49216;BME280;45943;53.148;8.204;2023-01-26T08:10:49;102408.66;;;5.88;100.00
49216;BME280;45943;53.148;8.204;2023-01-26T08:13:15;102414.78;;;5.92;100.00
49216;BME280;45943;53.148;8.204;2023-01-26T08:15:41;102418.13;;;5.97;100.00
49216;BME280;45943;53.148;8.204;2023-01-26T08:18:07;102425.88;;;6.04;100.00
49216;BME280;45943;53.148;8.204;2023-01-26T08:20:33;102425.75;;;6.08;100.00
49216;BME280;45943;53.148;8.204;2023-01-26T08:22:59;102415.94;;;6.08;100.00
49216;BME280;45943;53.148;8.204;2023-01-26T08:25:25;102426.59;;;6.10;100.00
49216;BME280;45943;53.148;8.204;2023-01-26T08:27:52;102421.06;;;6.14;100.00
49216;BME280;45943;53.148;8.204;2023-01-26T08:30:19;102413.94;;;6.15;100.00
49216;BME280;45943;53.148;8.204;2023-01-26T08:32:45;102426.41;;;6.14;100.00
49216;BME280;45943;53.148;8.204;2023-01-26T08:35:11;102428.94;;;6.17;100.00
49216;BME280;45943;53.148;8.204;2023-01-26T08:37:37;102431.50;;;6.20;100.00
49216;BME280;45943;53.148;8.204;2023-01-26T08:40:03;102423.22;;;6.28;100.00
49216;BME280;45943;53.148;8.204;2023-01-26T08:42:30;102428.44;;;6.31;100.00
49216;BME280;45943;53.148;8.204;2023-01-26T08:44:57;102431.00;;;6.34;100.00
49216;BME280;45943;53.148;8.204;2023-01-26T08:47:23;102427.31;;;6.37;100.00
49216;BME280;45943;53.148;8.204;2023-01-26T08:49:49;102434.38;;;6.39;100.00
49216;BME280;45943;53.148;8.204;2023-01-26T08:52:18;102433.38;;;6.42;100.00
49216;BME280;45943;53.148;8.204;2023-01-26T08:55:01;102430.59;;;6.45;100.00
49216;BME280;45943;53.148;8.204;2023-01-26T08:57:27;102436.72;;;6.47;100.00
49216;BME280;45943;53.148;8.204;2023-01-26T08:59:53;102433.19;;;6.46;100.00
49216;BME280;45943;53.148;8.204;2023-01-26T09:02:19;102439.16;;;6.53;100.00
49216;BME280;45943;53.148;8.204;2023-01-26T09:04:45;102444.31;;;6.57;100.00
49216;BME280;45943;53.148;8.204;2023-01-26T09:07:12;102438.03;;;6.58;100.00
49216;BME280;45943;53.148;8.204;2023-01-26T09:09:37;102438.16;;;6.55;100.00
49216;BME280;45943;53.148;8.204;2023-01-26T09:12:04;102447.91;;;6.56;100.00
49216;BME280;45943;53.148;8.204;2023-01-26T09:14:30;102445.22;;;6.56;100.00
49216;BME280;45943;53.148;8.204;2023-01-26T09:16:56;102440.91;;;6.54;100.00
49216;BME280;45943;53.148;8.204;2023-01-26T09:19:22;102448.84;;;6.55;100.00
49216;BME280;45943;53.148;8.204;2023-01-26T09:21:51;102454.28;;;6.52;100.00
49216;BME280;45943;53.148;8.204;2023-01-26T09:24:20;102450.84;;;6.49;100.00
49216;BME280;45943;53.148;8.204;2023-01-26T09:26:46;102450.56;;;6.56;100.00
49216;BME280;45943;53.148;8.204;2023-01-26T09:29:12;102443.22;;;6.63;100.00
49216;BME280;45943;53.148;8.204;2023-01-26T09:31:38;102436.66;;;6.72;100.00
49216;BME280;45943;53.148;8.204;2023-01-26T09:34:05;102438.03;;;6.82;100.00
49216;BME280;45943;53.148;8.204;2023-01-26T09:36:31;102432.34;;;6.91;100.00
49216;BME280;45943;53.148;8.204;2023-01-26T09:38:58;102443.44;;;7.02;100.00
49216;BME280;45943;53.148;8.204;2023-01-26T09:44:10;102438.69;;;7.10;100.00
49216;BME280;45943;53.148;8.204;2023-01-26T09:52:13;102433.78;;;7.00;100.00
49216;BME280;45943;53.148;8.204;2023-01-26T09:54:49;102443.69;;;6.96;100.00
49216;BME280;45943;53.148;8.204;2023-01-26T09:57:28;102432.41;;;6.89;100.00
49216;BME280;45943;53.148;8.204;2023-01-26T10:02:45;102449.50;;;6.84;100.00
49216;BME280;45943;53.148;8.204;2023-01-26T10:05:18;102446.78;;;6.85;100.00
49216;BME280;45943;53.148;8.204;2023-01-26T10:07:53;102451.94;;;6.90;100.00
49216;BME280;45943;53.148;8.204;2023-01-26T10:10:23;102439.34;;;6.94;100.00
49216;BME280;45943;53.148;8.204;2023-01-26T10:12:56;102433.00;;;6.96;100.00
49216;BME280;45943;53.148;8.204;2023-01-26T10:15:30;102444.63;;;6.95;100.00
49216;BME280;45943;53.148;8.204;2023-01-26T10:18:05;102440.94;;;6.98;100.00
49216;BME280;45943;53.148;8.204;2023-01-26T10:20:47;102438.13;;;7.02;100.00
49216;BME280;45943;53.148;8.204;2023-01-26T10:23:23;102436.19;;;7.06;100.00
49216;BME280;45943;53.148;8.204;2023-01-26T10:25:55;102436.94;;;7.09;100.00
49216;BME280;45943;53.148;8.204;2023-01-26T10:28:28;102439.53;;;7.11;100.00
49216;BME280;45943;53.148;8.204;2023-01-26T10:30:55;102437.91;;;7.07;100.00
49216;BME280;45943;53.148;8.204;2023-01-26T10:33:31;102440.59;;;7.07;100.00
49216;BME280;45943;53.148;8.204;2023-01-26T10:36:04;102438.75;;;7.09;100.00
49216;BME280;45943;53.148;8.204;2023-01-26T10:41:01;102437.88;;;7.08;100.00
49216;BME280;45943;53.148;8.204;2023-01-26T10:43:30;102437.91;;;7.07;100.00
49216;BME280;45943;53.148;8.204;2023-01-26T10:45:59;102436.88;;;7.11;100.00
49216;BME280;45943;53.148;8.204;2023-01-26T10:48:28;102434.06;;;7.14;100.00
49216;BME280;45943;53.148;8.204;2023-01-26T10:50:54;102436.75;;;7.14;100.00
49216;BME280;45943;53.148;8.204;2023-01-26T10:53:40;102436.50;;;7.20;100.00
49216;BME280;45943;53.148;8.204;2023-01-26T10:56:15;102443.50;;;7.23;100.00
49216;BME280;45943;53.148;8.204;2023-01-26T10:58:48;102429.97;;;7.27;100.00
49216;BME280;45943;53.148;8.204;2023-01-26T11:01:19;102425.25;;;7.34;100.00
49216;BME280;45943;53.148;8.204;2023-01-26T11:04:03;102426.59;;;7.44;100.00
49216;BME280;45943;53.148;8.204;2023-01-26T11:06:37;102422.66;;;7.53;100.00
49216;BME280;45943;53.148;8.204;2023-01-26T11:11:34;102421.81;;;7.72;100.00
49216;BME280;45943;53.148;8.204;2023-01-26T11:14:17;102423.38;;;7.78;100.00
49216;BME280;45943;53.148;8.204;2023-01-26T11:16:56;102425.56;;;7.89;100.00
49216;BME280;45943;53.148;8.204;2023-01-26T11:19:31;102420.81;;;7.95;100.00
49216;BME280;45943;53.148;8.204;2023-01-26T11:22:36;102408.75;;;8.05;100.00
49216;BME280;45943;53.148;8.204;2023-01-26T11:25:24;102410.97;;;8.16;100.00
49216;BME280;45943;53.148;8.204;2023-01-26T11:33:47;102401.47;;;8.29;100.00
49216;BME280;45943;53.148;8.204;2023-01-26T11:39:49;102406.78;;;8.50;100.00
49216;BME280;45943;53.148;8.204;2023-01-26T11:45:06;102397.97;;;8.67;100.00
49216;BME280;45943;53.148;8.204;2023-01-26T11:55:50;102399.88;;;8.82;100.00
49216;BME280;45943;53.148;8.204;2023-01-26T11:58:34;102393.31;;;8.89;100.00
49216;BME280;45943;53.148;8.204;2023-01-26T12:01:17;102394.97;;;8.91;100.00
49216;BME280;45943;53.148;8.204;2023-01-26T12:03:50;102386.56;;;8.99;100.00
49216;BME280;45943;53.148;8.204;2023-01-26T12:06:18;102391.53;;;9.07;100.00
49216;BME280;45943;53.148;8.204;2023-01-26T12:08:51;102380.50;;;9.13;100.00
49216;BME280;45943;53.148;8.204;2023-01-26T12:11:24;102373.13;;;9.18;100.00
49216;BME280;45943;53.148;8.204;2023-01-26T12:16:40;102374.97;;;9.35;100.00
49216;BME280;45943;53.148;8.204;2023-01-26T12:19:19;102373.16;;;9.35;100.00
49216;BME280;45943;53.148;8.204;2023-01-26T12:22:18;102359.81;;;9.34;100.00
49216;BME280;45943;53.148;8.204;2023-01-26T12:24:51;102366.06;;;9.34;100.00
49216;BME280;45943;53.148;8.204;2023-01-26T12:27:24;102362.44;;;9.35;100.00
49216;BME280;45943;53.148;8.204;2023-01-26T12:32:44;102356.06;;;9.38;100.00
49216;BME280;45943;53.148;8.204;2023-01-26T12:35:10;102351.56;;;9.38;100.00
49216;BME280;45943;53.148;8.204;2023-01-26T12:37:43;102353.38;;;9.38;100.00
49216;BME280;45943;53.148;8.204;2023-01-26T12:40:24;102347.25;;;9.36;100.00
49216;BME280;45943;53.148;8.204;2023-01-26T12:43:04;102330.22;;;9.37;100.00
49216;BME280;45943;53.148;8.204;2023-01-26T12:45:46;102333.19;;;9.31;100.00
49216;BME280;45943;53.148;8.204;2023-01-26T12:48:17;102325.41;;;9.26;100.00
49216;BME280;45943;53.148;8.204;2023-01-26T12:50:51;102326.03;;;9.31;100.00
49216;BME280;45943;53.148;8.204;2023-01-26T12:53:27;102326.13;;;9.47;100.00
49216;BME280;45943;53.148;8.204;2023-01-26T12:56:12;102330.03;;;9.57;100.00
49216;BME280;45943;53.148;8.204;2023-01-26T12:58:45;102324.13;;;9.51;100.00
49216;BME280;45943;53.148;8.204;2023-01-26T13:01:13;102323.53;;;9.45;100.00
49216;BME280;45943;53.148;8.204;2023-01-26T13:03:49;102330.91;;;9.40;100.00
49216;BME280;45943;53.148;8.204;2023-01-26T13:06:21;102322.66;;;9.45;100.00
49216;BME280;45943;53.148;8.204;2023-01-26T13:08:50;102326.81;;;9.51;100.00
49216;BME280;45943;53.148;8.204;2023-01-26T13:30:26;102323.91;;;9.20;100.00
49216;BME280;45943;53.148;8.204;2023-01-26T13:33:09;102316.13;;;9.16;100.00
49216;BME280;45943;53.148;8.204;2023-01-26T13:35:38;102318.81;;;9.16;100.00
49216;BME280;45943;53.148;8.204;2023-01-26T13:38:15;102310.84;;;9.14;100.00
49216;BME280;45943;53.148;8.204;2023-01-26T13:40:45;102317.38;;;9.09;100.00
49216;BME280;45943;53.148;8.204;2023-01-26T13:43:16;102322.72;;;9.09;100.00
49216;BME280;45943;53.148;8.204;2023-01-26T13:45:56;102316.59;;;9.07;100.00
49216;BME280;45943;53.148;8.204;2023-01-26T13:51:05;102322.66;;;9.10;100.00
49216;BME280;45943;53.148;8.204;2023-01-26T13:53:35;102330.59;;;9.12;100.00
49216;BME280;45943;53.148;8.204;2023-01-26T13:56:04;102329.97;;;9.07;100.00
49216;BME280;45943;53.148;8.204;2023-01-26T13:58:31;102331.88;;;9.05;100.00
49216;BME280;45943;53.148;8.204;2023-01-26T14:01:05;102335.53;;;9.02;100.00
49216;BME280;45943;53.148;8.204;2023-01-26T14:03:36;102331.22;;;9.00;100.00
49216;BME280;45943;53.148;8.204;2023-01-26T14:06:20;102334.75;;;9.00;100.00
49216;BME280;45943;53.148;8.204;2023-01-26T14:08:53;102340.97;;;9.01;100.00
49216;BME280;45943;53.148;8.204;2023-01-26T14:11:24;102336.50;;;9.01;100.00
49216;BME280;45943;53.148;8.204;2023-01-26T14:13:53;102335.53;;;9.02;100.00
49216;BME280;45943;53.148;8.204;2023-01-26T14:16:24;102335.41;;;9.05;100.00
49216;BME280;45943;53.148;8.204;2023-01-26T14:19:12;102334.38;;;9.08;100.00
49216;BME280;45943;53.148;8.204;2023-01-26T14:24:14;102338.50;;;9.15;100.00